createdAt,value
2019-02-20T00:00:08.939Z,18.87
2019-02-20T00:02:37.497Z,28.05
2019-02-20T00:05:06.117Z,22.82
2019-02-20T00:07:34.649Z,28.92
2019-02-20T00:10:03.312Z,27.40
2019-02-20T00:12:31.959Z,26.62
2019-02-20T00:15:00.454Z,28.73
2019-02-20T00:17:28.934Z,28.73
2019-02-20T00:19:57.454Z,30.10
2019-02-20T00:22:25.951Z,24.95
2019-02-20T00:24:54.402Z,29.30
2019-02-20T00:27:23.062Z,35.13
2019-02-20T00:29:51.693Z,27.77
2019-02-20T00:32:20.192Z,29.18
2019-02-20T00:34:48.705Z,32.70
2019-02-20T00:37:17.239Z,34.00
2019-02-20T00:39:45.723Z,33.83
2019-02-20T00:42:14.343Z,32.10
2019-02-20T00:44:44.466Z,31.42
2019-02-20T00:47:32.887Z,27.87
2019-02-20T00:50:01.381Z,26.90
2019-02-20T00:52:50.624Z,37.85
2019-02-20T00:55:19.294Z,31.02
2019-02-20T00:57:47.831Z,30.33
2019-02-20T01:00:16.727Z,30.27
2019-02-20T01:02:45.364Z,28.62
2019-02-20T01:05:13.967Z,31.27
2019-02-20T01:07:42.483Z,26.82
2019-02-20T01:10:11.099Z,26.33
2019-02-20T01:12:41.290Z,29.15
2019-02-20T01:15:11.323Z,33.15
2019-02-20T01:17:39.984Z,30.68
2019-02-20T01:20:10.480Z,25.93
2019-02-20T01:22:38.949Z,31.48
2019-02-20T01:25:07.646Z,26.25
2019-02-20T01:27:36.138Z,29.40
2019-02-20T01:30:07.475Z,25.73
2019-02-20T01:32:36.007Z,27.27
2019-02-20T01:35:04.997Z,22.87
2019-02-20T01:37:33.481Z,22.98
2019-02-20T01:40:02.014Z,25.20
2019-02-20T01:42:30.458Z,27.13
2019-02-20T01:44:58.959Z,27.35
2019-02-20T01:47:27.424Z,20.45
2019-02-20T01:49:55.929Z,20.85
2019-02-20T01:52:24.469Z,23.85
2019-02-20T01:54:53.025Z,23.80
2019-02-20T01:57:21.509Z,23.30
2019-02-20T01:59:50.436Z,23.92
2019-02-20T02:02:18.890Z,21.70
2019-02-20T02:04:47.477Z,23.50
2019-02-20T02:07:15.964Z,20.57
2019-02-20T02:09:44.478Z,29.27
2019-02-20T02:12:12.968Z,28.65
2019-02-20T02:14:41.442Z,21.12
2019-02-20T02:17:09.996Z,23.50
2019-02-20T02:19:38.558Z,31.73
2019-02-20T02:22:07.216Z,24.43
2019-02-20T02:24:35.881Z,19.60
2019-02-20T02:27:04.608Z,21.70
2019-02-20T02:29:33.068Z,23.52
2019-02-20T02:32:01.683Z,26.80
2019-02-20T02:34:30.139Z,26.50
2019-02-20T02:36:58.692Z,24.25
2019-02-20T02:39:27.180Z,24.07
2019-02-20T02:41:55.662Z,24.63
2019-02-20T02:44:24.259Z,23.77
2019-02-20T02:46:52.742Z,24.60
2019-02-20T02:49:21.333Z,22.62
2019-02-20T02:51:49.836Z,28.77
2019-02-20T02:54:18.389Z,28.75
2019-02-20T02:56:46.924Z,23.40
2019-02-20T02:59:15.476Z,24.30
2019-02-20T03:01:43.964Z,27.10
2019-02-20T03:04:12.444Z,28.00
2019-02-20T03:06:40.918Z,33.17
2019-02-20T03:09:10.351Z,26.50
2019-02-20T03:11:38.810Z,27.22
2019-02-20T03:14:07.386Z,26.45
2019-02-20T03:16:35.912Z,26.40
2019-02-20T03:19:04.454Z,27.52
2019-02-20T03:21:32.931Z,24.12
2019-02-20T03:24:01.829Z,25.90
2019-02-20T03:26:30.445Z,30.82
2019-02-20T03:28:59.095Z,20.70
2019-02-20T03:31:27.859Z,27.10
2019-02-20T03:33:56.320Z,22.93
2019-02-20T03:36:24.805Z,22.22
2019-02-20T03:38:53.258Z,34.43
2019-02-20T03:41:21.759Z,23.07
2019-02-20T03:43:50.213Z,28.52
2019-02-20T03:46:18.673Z,26.17
2019-02-20T03:48:47.178Z,27.37
2019-02-20T03:51:15.637Z,31.25
2019-02-20T03:53:51.670Z,23.60
2019-02-20T03:56:14.635Z,27.07
2019-02-20T03:58:43.154Z,31.02
2019-02-20T04:01:11.639Z,26.55
2019-02-20T04:03:40.177Z,24.70
2019-02-20T04:06:08.661Z,26.82
2019-02-20T04:08:37.280Z,27.62
2019-02-20T04:11:05.766Z,25.90
2019-02-20T04:13:34.410Z,28.17
2019-02-20T04:16:02.932Z,26.23
2019-02-20T04:18:31.415Z,24.90
2019-02-20T04:20:59.976Z,22.87
2019-02-20T04:23:28.466Z,24.47
2019-02-20T04:25:56.918Z,29.98
2019-02-20T04:28:25.402Z,24.25
2019-02-20T04:30:53.879Z,29.42
2019-02-20T04:33:22.436Z,24.18
2019-02-20T04:35:50.892Z,26.82
2019-02-20T04:38:19.384Z,23.70
2019-02-20T04:40:47.908Z,29.00
2019-02-20T04:43:16.387Z,24.07
2019-02-20T04:45:44.930Z,26.65
2019-02-20T04:48:13.460Z,25.68
2019-02-20T04:50:42.301Z,27.83
2019-02-20T04:53:10.747Z,28.47
2019-02-20T04:55:39.332Z,24.23
2019-02-20T04:58:15.983Z,22.17
2019-02-20T05:00:44.586Z,27.33
2019-02-20T05:03:13.149Z,27.20
2019-02-20T05:05:41.862Z,27.45
2019-02-20T05:08:10.452Z,32.90
2019-02-20T05:10:39.001Z,24.50
2019-02-20T05:13:07.735Z,26.52
2019-02-20T05:15:36.262Z,33.60
2019-02-20T05:18:04.786Z,25.23
2019-02-20T05:20:34.095Z,24.23
2019-02-20T05:23:02.547Z,29.55
2019-02-20T05:25:31.009Z,27.90
2019-02-20T05:27:59.529Z,25.80
2019-02-20T05:30:28.006Z,26.10
2019-02-20T05:32:56.755Z,25.57
2019-02-20T05:35:25.248Z,26.62
2019-02-20T05:37:53.781Z,23.02
2019-02-20T05:40:22.523Z,25.92
2019-02-20T05:42:51.240Z,23.45
2019-02-20T05:45:19.887Z,25.12
2019-02-20T05:47:48.388Z,25.45
2019-02-20T05:50:16.838Z,27.60
2019-02-20T05:52:45.318Z,30.65
2019-02-20T05:55:13.830Z,31.13
2019-02-20T05:57:42.344Z,24.95
2019-02-20T06:00:12.922Z,30.57
2019-02-20T06:02:44.424Z,26.00
2019-02-20T06:05:13.048Z,26.05
2019-02-20T06:07:44.487Z,27.25
2019-02-20T06:10:13.082Z,31.45
2019-02-20T06:12:41.627Z,27.67
2019-02-20T06:15:10.590Z,29.72
2019-02-20T06:17:39.144Z,26.17
2019-02-20T06:20:11.909Z,27.40
2019-02-20T06:22:40.328Z,33.25
2019-02-20T06:25:09.159Z,29.35
2019-02-20T06:27:37.598Z,27.48
2019-02-20T06:30:09.362Z,29.53
2019-02-20T06:32:37.834Z,29.82
2019-02-20T06:35:07.209Z,27.05
2019-02-20T06:37:35.738Z,29.85
2019-02-20T06:40:07.332Z,26.62
2019-02-20T06:42:35.889Z,31.25
2019-02-20T06:45:07.317Z,24.17
2019-02-20T06:47:35.961Z,35.80
2019-02-20T06:50:06.157Z,29.73
2019-02-20T06:52:34.697Z,30.92
2019-02-20T06:55:03.447Z,28.35
2019-02-20T06:57:31.867Z,28.75
2019-02-20T07:00:00.475Z,32.75
2019-02-20T07:02:29.336Z,25.60
2019-02-20T07:05:26.381Z,28.00
2019-02-20T07:08:14.676Z,29.27
2019-02-20T07:10:54.962Z,31.57
2019-02-20T07:13:26.512Z,23.02
2019-02-20T07:16:16.354Z,23.05
2019-02-20T07:18:53.919Z,29.40
2019-02-20T07:21:27.881Z,32.13
2019-02-20T07:24:14.608Z,27.17
2019-02-20T07:26:47.104Z,33.35
2019-02-20T07:29:43.902Z,28.87
2019-02-20T07:32:17.833Z,28.77
2019-02-20T07:34:46.288Z,27.80
2019-02-20T07:37:14.828Z,33.00
2019-02-20T07:39:43.367Z,27.35
2019-02-20T07:42:12.064Z,26.00
2019-02-20T07:44:40.571Z,28.90
2019-02-20T07:47:09.195Z,32.53
2019-02-20T07:49:37.640Z,31.80
2019-02-20T07:52:06.204Z,27.15
2019-02-20T07:54:34.774Z,25.65
2019-02-20T07:57:03.359Z,31.42
2019-02-20T07:59:31.880Z,31.10
2019-02-20T08:02:00.607Z,29.85
2019-02-20T08:04:29.246Z,34.55
2019-02-20T08:06:57.700Z,32.15
2019-02-20T08:09:26.183Z,32.88
2019-02-20T08:11:54.760Z,28.75
2019-02-20T08:14:23.273Z,24.67
2019-02-20T08:16:52.868Z,23.27
2019-02-20T08:19:22.056Z,28.30
2019-02-20T08:21:50.733Z,29.12
2019-02-20T08:24:19.219Z,28.85
2019-02-20T08:26:47.803Z,25.70
2019-02-20T08:29:16.652Z,24.85
2019-02-20T08:31:45.198Z,26.95
2019-02-20T08:34:14.021Z,27.60
2019-02-20T08:36:42.509Z,25.08
2019-02-20T08:39:11.221Z,31.10
2019-02-20T08:41:39.740Z,23.27
2019-02-20T08:44:08.503Z,26.70
2019-02-20T08:46:37.135Z,31.07
2019-02-20T08:49:05.758Z,26.48
2019-02-20T08:51:34.242Z,26.95
2019-02-20T08:54:04.417Z,34.23
2019-02-20T08:56:33.003Z,26.93
2019-02-20T08:59:01.773Z,30.32
2019-02-20T09:04:58.681Z,27.47
2019-02-20T09:07:27.255Z,31.05
2019-02-20T09:09:55.792Z,30.43
2019-02-20T09:12:24.255Z,29.23
2019-02-20T09:14:52.831Z,36.47
2019-02-20T09:17:21.662Z,27.87
2019-02-20T09:19:50.557Z,31.93
2019-02-20T09:22:19.091Z,30.45
2019-02-20T09:24:47.812Z,30.12
2019-02-20T09:27:16.272Z,29.82
2019-02-20T09:29:44.750Z,26.23
2019-02-20T09:32:13.308Z,27.98
2019-02-20T09:34:41.752Z,24.23
2019-02-20T09:37:10.284Z,28.23
2019-02-20T09:39:39.146Z,25.48
2019-02-20T09:42:08.169Z,24.67
2019-02-20T09:44:42.763Z,30.15
2019-02-20T09:47:11.408Z,26.17
2019-02-20T09:49:40.109Z,28.67
2019-02-20T09:52:08.651Z,25.80
2019-02-20T09:54:37.135Z,27.80
2019-02-20T09:57:05.685Z,22.70
2019-02-20T09:59:34.194Z,24.25
2019-02-20T10:02:02.833Z,24.55
2019-02-20T10:04:31.735Z,29.07
2019-02-20T10:07:00.385Z,26.68
2019-02-20T10:09:28.864Z,25.97
2019-02-20T10:11:57.526Z,25.55
2019-02-20T10:14:26.174Z,26.85
2019-02-20T10:16:54.720Z,33.53
2019-02-20T10:19:23.306Z,29.90
2019-02-20T10:21:51.806Z,29.95
2019-02-20T10:24:20.445Z,25.68
2019-02-20T10:26:48.916Z,25.23
2019-02-20T10:29:17.414Z,31.23
2019-02-20T10:31:45.948Z,23.05
2019-02-20T10:34:14.723Z,28.60
2019-02-20T10:36:43.252Z,28.73
2019-02-20T10:39:11.786Z,30.37
2019-02-20T10:41:40.522Z,30.27
2019-02-20T10:44:09.002Z,27.67
2019-02-20T10:46:37.474Z,33.27
2019-02-20T10:49:06.266Z,33.00
2019-02-20T10:51:34.877Z,33.10
2019-02-20T10:54:03.334Z,30.25
2019-02-20T10:56:32.012Z,29.15
2019-02-20T10:59:00.732Z,28.57
2019-02-20T11:01:29.282Z,30.70
2019-02-20T11:03:57.855Z,28.98
2019-02-20T11:06:26.388Z,29.37
2019-02-20T11:08:54.917Z,33.33
2019-02-20T11:11:23.693Z,34.05
2019-02-20T11:13:52.204Z,26.10
2019-02-20T11:16:20.680Z,31.97
2019-02-20T11:18:49.435Z,31.40
2019-02-20T11:21:17.999Z,28.70
2019-02-20T11:23:46.458Z,28.93
2019-02-20T11:26:18.196Z,31.48
2019-02-20T11:28:45.268Z,29.93
2019-02-20T11:31:13.923Z,28.25
2019-02-20T11:33:42.471Z,31.25
2019-02-20T11:36:10.950Z,28.97
2019-02-20T11:38:39.406Z,35.20
2019-02-20T11:41:07.900Z,32.73
2019-02-20T11:43:36.431Z,40.55
2019-02-20T11:46:05.055Z,32.28
2019-02-20T11:48:33.517Z,25.37
2019-02-20T11:51:02.118Z,28.17
2019-02-20T11:53:36.998Z,32.40
2019-02-20T11:56:01.013Z,27.22
2019-02-20T11:58:29.476Z,30.03
2019-02-20T12:00:58.003Z,34.03
2019-02-20T12:03:26.569Z,30.80
2019-02-20T12:05:55.159Z,31.90
2019-02-20T12:08:23.913Z,34.73
2019-02-20T12:10:52.528Z,37.38
2019-02-20T12:13:21.071Z,31.77
2019-02-20T12:15:49.584Z,32.90
2019-02-20T12:18:18.494Z,33.78
2019-02-20T12:20:47.374Z,34.13
2019-02-20T12:23:16.074Z,32.00
2019-02-20T12:25:44.660Z,43.15
2019-02-20T12:28:13.263Z,36.40
2019-02-20T12:30:41.897Z,33.03
2019-02-20T12:33:10.436Z,34.05
2019-02-20T12:35:39.036Z,36.45
2019-02-20T12:38:07.730Z,36.83
2019-02-20T12:40:36.408Z,31.77
2019-02-20T12:43:04.986Z,35.53
2019-02-20T12:45:33.513Z,33.88
2019-02-20T12:48:02.357Z,36.60
2019-02-20T12:50:30.843Z,33.65
2019-02-20T12:52:59.422Z,30.32
2019-02-20T12:55:28.056Z,38.23
2019-02-20T12:57:56.906Z,31.82
2019-02-20T13:00:25.518Z,37.80
2019-02-20T13:02:54.115Z,35.27
2019-02-20T13:05:22.751Z,32.73
2019-02-20T13:07:51.627Z,36.40
2019-02-20T13:10:20.255Z,38.33
2019-02-20T13:12:49.047Z,34.05
2019-02-20T13:15:17.739Z,34.13
2019-02-20T13:17:46.559Z,34.13
2019-02-20T13:20:15.232Z,33.63
2019-02-20T13:22:43.859Z,31.90
2019-02-20T13:25:12.991Z,26.30
2019-02-20T13:27:41.637Z,25.08
2019-02-20T13:30:12.565Z,26.30
2019-02-20T13:32:41.018Z,24.87
2019-02-20T13:35:10.016Z,25.30
2019-02-20T13:37:38.593Z,25.37
2019-02-20T13:40:10.217Z,22.15
2019-02-20T13:42:38.869Z,17.32
2019-02-20T13:45:08.899Z,19.27
2019-02-20T13:47:37.604Z,21.65
2019-02-20T13:50:11.832Z,21.17
2019-02-20T13:52:40.891Z,22.48
2019-02-20T13:55:09.787Z,18.57
2019-02-20T13:57:38.423Z,23.57
2019-02-20T14:00:10.190Z,22.77
2019-02-20T14:02:38.743Z,19.00
2019-02-20T14:05:08.846Z,23.87
2019-02-20T14:07:37.410Z,22.90
2019-02-20T14:10:11.370Z,22.73
2019-02-20T14:12:39.923Z,27.95
2019-02-20T14:15:11.232Z,18.87
2019-02-20T14:17:39.722Z,20.05
2019-02-20T14:20:10.795Z,23.43
2019-02-20T14:22:40.022Z,24.06
2019-02-20T14:25:10.223Z,24.13
2019-02-20T14:27:38.776Z,20.77
2019-02-20T14:30:12.196Z,18.82
2019-02-20T14:32:40.684Z,17.77
2019-02-20T14:35:11.310Z,23.38
2019-02-20T14:37:41.362Z,21.33
2019-02-20T14:40:10.897Z,21.37
2019-02-20T14:42:39.519Z,21.87
2019-02-20T14:45:10.993Z,16.23
2019-02-20T14:47:39.728Z,16.62
2019-02-20T14:50:12.705Z,18.67
2019-02-20T14:52:41.392Z,22.58
2019-02-20T14:55:11.006Z,15.58
2019-02-20T14:57:39.790Z,20.97
2019-02-20T15:00:13.806Z,16.48
2019-02-20T15:05:11.982Z,19.32
2019-02-20T15:07:40.782Z,16.97
2019-02-20T15:10:10.393Z,17.57
2019-02-20T15:12:38.899Z,19.42
2019-02-20T15:15:10.981Z,17.42
2019-02-20T15:17:39.579Z,17.00
2019-02-20T15:20:11.096Z,21.43
2019-02-20T15:22:39.993Z,25.20
2019-02-20T15:25:09.678Z,21.45
2019-02-20T15:27:38.466Z,19.00
2019-02-20T15:30:17.205Z,20.57
2019-02-20T15:32:46.060Z,19.20
2019-02-20T15:35:15.061Z,17.85
2019-02-20T15:37:43.701Z,13.98
2019-02-20T15:40:12.409Z,15.63
2019-02-20T15:42:40.975Z,18.27
2019-02-20T15:45:11.098Z,16.77
2019-02-20T15:47:39.761Z,20.12
2019-02-20T15:50:11.439Z,17.50
2019-02-20T15:52:40.039Z,19.05
2019-02-20T15:55:11.433Z,21.05
2019-02-20T15:57:41.633Z,19.35
2019-02-20T16:00:13.551Z,29.70
2019-02-20T16:02:42.031Z,30.17
2019-02-20T16:05:10.929Z,24.67
2019-02-20T16:07:39.487Z,20.97
2019-02-20T16:10:09.869Z,22.57
2019-02-20T16:12:38.553Z,22.87
2019-02-20T16:15:09.556Z,24.98
2019-02-20T16:17:38.158Z,17.07
2019-02-20T16:20:09.580Z,20.02
2019-02-20T16:22:38.261Z,20.45
2019-02-20T16:25:12.254Z,21.25
2019-02-20T16:27:46.738Z,22.30
2019-02-20T16:30:15.022Z,23.02
2019-02-20T16:32:43.642Z,24.92
2019-02-20T16:35:12.944Z,22.37
2019-02-20T16:37:41.752Z,20.80
2019-02-20T16:40:15.199Z,23.00
2019-02-20T16:42:43.802Z,21.40
2019-02-20T16:45:23.501Z,24.72
2019-02-20T16:47:52.511Z,26.80
2019-02-20T16:50:21.116Z,24.00
2019-02-20T16:52:49.711Z,24.23
2019-02-20T16:55:19.731Z,26.27
2019-02-20T16:57:56.160Z,23.97
2019-02-20T17:00:21.640Z,23.90
2019-02-20T17:02:50.743Z,22.77
2019-02-20T17:05:19.689Z,21.52
2019-02-20T17:07:48.215Z,20.85
2019-02-20T17:10:17.339Z,25.88
2019-02-20T17:12:46.068Z,20.13
2019-02-20T17:15:16.502Z,25.00
2019-02-20T17:17:45.296Z,22.82
2019-02-20T17:20:17.764Z,23.77
2019-02-20T17:22:46.604Z,19.57
2019-02-20T17:25:15.741Z,20.23
2019-02-20T17:27:44.413Z,22.55
2019-02-20T17:30:15.253Z,27.23
2019-02-20T17:32:44.227Z,18.80
2019-02-20T17:35:12.949Z,21.37
2019-02-20T17:37:41.511Z,21.10
2019-02-20T17:40:11.506Z,24.57
2019-02-20T17:42:41.492Z,22.95
2019-02-20T17:45:17.688Z,23.53
2019-02-20T17:47:46.576Z,19.70
2019-02-20T17:50:17.758Z,22.93
2019-02-20T17:52:46.402Z,22.80
2019-02-20T17:55:15.231Z,26.07
2019-02-20T17:57:43.910Z,22.37
2019-02-20T18:00:14.972Z,23.40
2019-02-20T18:02:43.502Z,23.43
2019-02-20T18:05:13.858Z,21.70
2019-02-20T18:07:49.452Z,23.23
2019-02-20T18:10:13.014Z,19.63
2019-02-20T18:12:41.547Z,19.60
2019-02-20T18:15:12.614Z,20.57
2019-02-20T18:17:41.287Z,22.50
2019-02-20T18:20:11.052Z,20.03
2019-02-20T18:22:39.573Z,18.95
2019-02-20T18:25:10.059Z,21.97
2019-02-20T18:27:38.634Z,19.32
2019-02-20T18:30:12.510Z,17.00
2019-02-20T18:35:11.119Z,18.90
2019-02-20T18:37:40.013Z,17.93
2019-02-20T18:40:11.472Z,23.83
2019-02-20T18:42:39.940Z,22.45
2019-02-20T18:45:13.695Z,24.32
2019-02-20T18:47:42.368Z,23.77
2019-02-20T18:50:13.002Z,24.40
2019-02-20T18:52:41.681Z,22.75
2019-02-20T18:55:11.812Z,22.42
2019-02-20T18:57:42.411Z,22.50
2019-02-20T19:00:16.783Z,22.58
2019-02-20T19:02:45.630Z,23.07
2019-02-20T19:05:14.819Z,19.17
2019-02-20T19:07:43.409Z,27.07
2019-02-20T19:10:26.945Z,23.57
2019-02-20T19:13:28.228Z,21.05
2019-02-20T19:16:08.705Z,22.93
2019-02-20T19:19:02.545Z,21.40
2019-02-20T19:21:31.754Z,23.77
2019-02-20T19:24:18.279Z,26.10
2019-02-20T19:26:58.388Z,19.23
2019-02-20T19:29:53.890Z,21.15
2019-02-20T19:32:43.515Z,26.40
2019-02-20T19:35:30.402Z,22.37
2019-02-20T19:38:07.592Z,29.92
2019-02-20T19:40:44.618Z,27.85
2019-02-20T19:43:34.518Z,24.63
2019-02-20T19:46:21.133Z,26.23
2019-02-20T19:49:17.115Z,26.70
2019-02-20T19:52:16.098Z,31.48
2019-02-20T19:54:56.636Z,27.27
2019-02-20T19:57:34.403Z,32.58
2019-02-20T20:00:09.480Z,34.73
2019-02-20T20:03:10.559Z,34.78
2019-02-20T20:05:51.443Z,34.18
2019-02-20T20:08:42.909Z,29.27
2019-02-20T20:11:20.481Z,30.00
2019-02-20T20:14:14.150Z,30.00
2019-02-20T20:16:51.567Z,31.75
2019-02-20T20:19:23.350Z,32.13
2019-02-20T20:22:15.803Z,30.55
2019-02-20T20:25:08.721Z,32.50
2019-02-20T20:28:04.395Z,30.10
2019-02-20T20:30:39.147Z,34.03
2019-02-20T20:33:42.822Z,32.13
2019-02-20T20:36:38.454Z,31.77
2019-02-20T20:39:16.157Z,33.88
2019-02-20T20:42:00.359Z,33.42
2019-02-20T20:45:03.921Z,31.70
2019-02-20T20:47:53.624Z,36.08
2019-02-20T20:50:46.126Z,36.28
2019-02-20T20:53:17.854Z,26.30
2019-02-20T20:55:58.547Z,31.55
2019-02-20T20:58:39.646Z,28.35
2019-02-20T21:01:31.130Z,32.28
2019-02-20T21:04:19.620Z,30.17
2019-02-20T21:07:12.853Z,27.95
2019-02-20T21:09:59.558Z,30.63
2019-02-20T21:12:33.966Z,32.67
2019-02-20T21:17:53.595Z,34.40
2019-02-20T21:20:28.084Z,29.80
2019-02-20T21:23:11.417Z,30.35
2019-02-20T21:25:48.768Z,29.80
2019-02-20T21:28:44.464Z,29.43
2019-02-20T21:31:53.677Z,31.90
2019-02-20T21:34:48.212Z,29.67
2019-02-20T21:37:45.299Z,25.97
2019-02-20T21:40:38.113Z,29.95
2019-02-20T21:43:29.370Z,35.90
2019-02-20T21:46:21.983Z,38.70
2019-02-20T21:49:19.685Z,36.85
2019-02-20T21:52:03.488Z,39.75
2019-02-20T21:54:40.946Z,37.17
2019-02-20T21:57:35.172Z,31.45
2019-02-20T22:00:28.067Z,38.57
2019-02-20T22:03:12.007Z,30.87
2019-02-20T22:06:07.604Z,32.37
2019-02-20T22:09:07.963Z,34.27
2019-02-20T22:11:45.330Z,32.03
2019-02-20T22:14:22.696Z,33.13
2019-02-20T22:16:57.273Z,29.70
2019-02-20T22:22:17.664Z,34.53
2019-02-20T22:24:54.731Z,32.93
2019-02-20T22:27:32.242Z,32.53
2019-02-20T22:30:31.236Z,26.62
2019-02-20T22:33:26.974Z,24.65
2019-02-20T22:36:10.578Z,32.45
2019-02-20T22:39:15.322Z,30.00
2019-02-20T22:44:38.131Z,30.47
2019-02-20T22:47:14.937Z,25.43
2019-02-20T22:50:00.965Z,24.98
2019-02-20T22:52:44.564Z,30.97
2019-02-20T22:55:24.792Z,26.33
2019-02-20T22:58:02.421Z,28.38
2019-02-20T23:00:53.700Z,32.40
2019-02-20T23:03:34.265Z,34.90
2019-02-20T23:06:22.419Z,28.98
2019-02-20T23:09:05.130Z,29.20
2019-02-20T23:11:39.363Z,29.00
2019-02-20T23:14:31.966Z,25.70
2019-02-20T23:17:00.613Z,29.32
2019-02-20T23:19:29.150Z,31.10
2019-02-20T23:21:57.741Z,26.75
2019-02-20T23:24:26.231Z,33.65
2019-02-20T23:26:54.765Z,28.87
2019-02-20T23:29:23.460Z,28.63
2019-02-20T23:31:51.906Z,32.75
2019-02-20T23:34:20.433Z,27.87
2019-02-20T23:36:48.928Z,33.23
2019-02-20T23:39:17.459Z,27.05
2019-02-20T23:41:45.971Z,30.88
2019-02-20T23:44:14.438Z,29.77
2019-02-20T23:46:42.998Z,33.23
2019-02-20T23:49:11.522Z,32.60
2019-02-20T23:51:40.030Z,38.53
2019-02-20T23:54:08.510Z,33.28
2019-02-20T23:56:37.088Z,32.58
2019-02-20T23:59:05.574Z,32.10
